createdAt,value
2022-11-13T00:01:13.298Z,26.85
2022-11-13T00:03:41.595Z,25.38
2022-11-13T00:06:11.406Z,20.77
2022-11-13T00:08:39.894Z,17.70
2022-11-13T00:11:10.984Z,20.83
2022-11-13T00:13:39.369Z,27.05
2022-11-13T00:16:12.197Z,21.30
2022-11-13T00:18:40.771Z,23.95
2022-11-13T00:21:09.851Z,21.33
2022-11-13T00:23:38.654Z,21.55
2022-11-13T00:26:08.556Z,22.45
2022-11-13T00:28:37.134Z,25.02
2022-11-13T00:31:06.908Z,21.98
2022-11-13T00:36:27.324Z,22.58
2022-11-13T00:38:56.101Z,25.17
2022-11-13T00:41:25.236Z,26.58
2022-11-13T00:43:53.487Z,19.98
2022-11-13T00:46:21.750Z,19.30
2022-11-13T00:48:51.231Z,23.80
2022-11-13T00:51:19.880Z,20.38
2022-11-13T00:53:48.116Z,22.05
2022-11-13T00:56:16.418Z,21.05
2022-11-13T00:58:44.683Z,23.88
2022-11-13T01:01:14.811Z,16.23
2022-11-13T01:03:43.011Z,30.75
2022-11-13T01:06:14.921Z,23.27
2022-11-13T01:08:43.097Z,19.17
2022-11-13T01:11:12.406Z,24.67
2022-11-13T01:13:41.312Z,23.33
2022-11-13T01:16:11.742Z,24.27
2022-11-13T01:18:41.320Z,18.35
2022-11-13T01:21:13.848Z,14.50
2022-11-13T01:23:42.707Z,17.60
2022-11-13T01:26:12.778Z,22.83
2022-11-13T01:28:42.036Z,29.33
2022-11-13T01:31:12.303Z,15.35
2022-11-13T01:33:40.499Z,23.25
2022-11-13T01:36:12.371Z,21.48
2022-11-13T01:38:41.962Z,26.27
2022-11-13T01:41:22.809Z,26.73
2022-11-13T01:43:52.447Z,20.20
2022-11-13T01:46:32.529Z,18.33
2022-11-13T01:49:05.934Z,27.15
2022-11-13T01:51:36.241Z,20.48
2022-11-13T01:54:11.090Z,31.38
2022-11-13T01:56:39.328Z,25.52
2022-11-13T01:59:12.818Z,25.67
2022-11-13T02:01:41.338Z,17.83
2022-11-13T02:04:09.622Z,21.42
2022-11-13T02:06:42.376Z,28.27
2022-11-13T02:09:13.276Z,20.10
2022-11-13T02:11:42.681Z,22.58
2022-11-13T02:14:12.251Z,18.02
2022-11-13T02:16:43.152Z,23.65
2022-11-13T02:19:18.285Z,27.35
2022-11-13T02:21:54.331Z,25.38
2022-11-13T02:24:28.998Z,29.02
2022-11-13T02:27:02.121Z,28.10
2022-11-13T02:29:30.280Z,20.17
2022-11-13T02:31:58.502Z,21.05
2022-11-13T02:34:26.683Z,30.60
2022-11-13T02:36:54.882Z,28.23
2022-11-13T02:39:24.403Z,29.27
2022-11-13T02:41:52.490Z,28.00
2022-11-13T02:44:20.699Z,26.45
2022-11-13T02:46:48.960Z,30.85
2022-11-13T02:49:17.288Z,24.35
2022-11-13T02:51:45.423Z,22.75
2022-11-13T02:54:16.856Z,24.50
2022-11-13T02:56:46.882Z,16.95
2022-11-13T02:59:15.072Z,38.38
2022-11-13T03:01:43.314Z,25.08
2022-11-13T03:04:11.616Z,18.98
2022-11-13T03:06:39.870Z,26.80
2022-11-13T03:09:08.033Z,28.60
2022-11-13T03:11:36.179Z,18.13
2022-11-13T03:14:05.787Z,14.43
2022-11-13T03:16:33.981Z,30.52
2022-11-13T03:19:02.233Z,20.52
2022-11-13T03:21:30.406Z,20.58
2022-11-13T03:23:58.984Z,23.05
2022-11-13T03:26:28.485Z,12.52
2022-11-13T03:28:57.094Z,22.15
2022-11-13T03:31:26.600Z,26.50
2022-11-13T03:33:55.314Z,16.80
2022-11-13T03:36:23.504Z,16.00
2022-11-13T03:38:51.845Z,20.55
2022-11-13T03:41:20.182Z,23.73
2022-11-13T03:43:48.387Z,22.20
2022-11-13T03:46:16.561Z,23.40
2022-11-13T03:48:46.149Z,25.80
2022-11-13T03:51:14.407Z,17.45
2022-11-13T03:53:42.682Z,17.30
2022-11-13T03:56:11.003Z,27.90
2022-11-13T03:58:40.445Z,19.33
2022-11-13T04:01:08.972Z,16.55
2022-11-13T04:03:37.188Z,16.77
2022-11-13T04:06:07.378Z,20.83
2022-11-13T04:08:35.874Z,21.92
2022-11-13T04:11:08.315Z,23.50
2022-11-13T04:13:36.486Z,27.55
2022-11-13T04:16:04.863Z,19.05
2022-11-13T04:18:33.125Z,24.10
2022-11-13T04:21:01.997Z,23.25
2022-11-13T04:23:32.056Z,26.42
2022-11-13T04:28:42.290Z,21.67
2022-11-13T04:31:10.464Z,19.98
2022-11-13T04:33:38.688Z,23.67
2022-11-13T04:36:07.514Z,19.83
2022-11-13T04:38:35.731Z,17.50
2022-11-13T04:41:26.909Z,19.80
2022-11-13T04:43:56.452Z,20.58
2022-11-13T04:46:24.652Z,22.10
2022-11-13T04:48:52.885Z,28.35
2022-11-13T04:51:21.090Z,21.35
2022-11-13T04:53:49.314Z,27.15
2022-11-13T04:56:17.483Z,32.22
2022-11-13T04:58:45.569Z,31.30
2022-11-13T05:01:15.145Z,45.03
2022-11-13T05:03:43.383Z,37.70
2022-11-13T05:06:11.968Z,43.47
2022-11-13T05:08:40.769Z,28.08
2022-11-13T05:11:09.054Z,29.40
2022-11-13T05:13:38.414Z,33.33
2022-11-13T05:16:09.914Z,25.67
2022-11-13T05:21:09.168Z,22.63
2022-11-13T05:23:37.394Z,24.50
2022-11-13T05:26:07.158Z,21.98
2022-11-13T05:28:35.869Z,35.50
2022-11-13T05:31:06.083Z,36.53
2022-11-13T05:33:34.628Z,33.85
2022-11-13T05:36:05.002Z,25.73
2022-11-13T05:38:33.755Z,26.05
2022-11-13T05:41:06.603Z,24.13
2022-11-13T05:43:35.275Z,30.90
2022-11-13T05:46:05.160Z,28.98
2022-11-13T05:48:33.845Z,29.45
2022-11-13T05:51:05.287Z,34.83
2022-11-13T05:53:35.537Z,31.98
2022-11-13T05:56:04.907Z,35.30
2022-11-13T05:58:33.597Z,31.52
2022-11-13T06:01:12.780Z,20.60
2022-11-13T06:03:41.794Z,19.38
2022-11-13T06:06:12.967Z,32.65
2022-11-13T06:08:41.690Z,28.60
2022-11-13T06:11:11.551Z,29.73
2022-11-13T06:13:40.299Z,27.38
2022-11-13T06:16:10.612Z,33.55
2022-11-13T06:18:40.040Z,37.97
2022-11-13T06:21:10.686Z,30.77
2022-11-13T06:23:41.545Z,30.53
2022-11-13T06:26:12.530Z,33.30
2022-11-13T06:28:41.563Z,26.27
2022-11-13T06:31:11.749Z,23.45
2022-11-13T06:33:41.014Z,32.53
2022-11-13T06:36:11.917Z,33.25
2022-11-13T06:38:42.734Z,29.08
2022-11-13T06:41:15.481Z,36.22
2022-11-13T06:43:44.022Z,29.30
2022-11-13T06:46:14.168Z,30.95
2022-11-13T06:48:42.391Z,25.75
2022-11-13T06:51:19.987Z,24.73
2022-11-13T06:53:50.558Z,39.03
2022-11-13T06:56:19.599Z,30.25
2022-11-13T06:58:47.976Z,23.33
2022-11-13T07:01:18.155Z,26.42
2022-11-13T07:03:46.655Z,24.45
2022-11-13T07:06:16.787Z,34.75
2022-11-13T07:08:45.720Z,23.55
2022-11-13T07:11:18.472Z,32.60
2022-11-13T07:13:47.049Z,32.95
2022-11-13T07:16:18.012Z,26.48
2022-11-13T07:18:50.577Z,28.88
2022-11-13T07:21:18.807Z,32.58
2022-11-13T07:23:48.868Z,35.55
2022-11-13T07:26:19.362Z,27.83
2022-11-13T07:28:48.289Z,23.65
2022-11-13T07:31:17.955Z,39.85
2022-11-13T07:33:46.391Z,35.95
2022-11-13T07:36:14.592Z,31.98
2022-11-13T07:38:43.039Z,44.28
2022-11-13T07:41:11.368Z,33.50
2022-11-13T07:43:40.961Z,33.42
2022-11-13T07:46:09.071Z,31.13
2022-11-13T07:48:37.334Z,24.08
2022-11-13T07:51:05.607Z,26.83
2022-11-13T07:53:33.716Z,24.13
2022-11-13T07:56:03.412Z,26.73
2022-11-13T07:58:32.130Z,32.47
2022-11-13T08:01:14.360Z,34.65
2022-11-13T08:03:42.580Z,26.38
2022-11-13T08:06:10.830Z,38.63
2022-11-13T08:08:39.010Z,33.55
2022-11-13T08:11:08.958Z,29.13
2022-11-13T08:13:38.219Z,32.05
2022-11-13T08:16:09.124Z,28.48
2022-11-13T08:18:37.410Z,28.15
2022-11-13T08:21:11.858Z,25.65
2022-11-13T08:23:43.696Z,34.95
2022-11-13T08:26:12.777Z,35.13
2022-11-13T08:28:41.838Z,46.80
2022-11-13T08:31:13.846Z,32.92
2022-11-13T08:33:42.647Z,34.15
2022-11-13T08:36:11.931Z,27.08
2022-11-13T08:38:40.204Z,28.42
2022-11-13T08:41:09.565Z,32.08
2022-11-13T08:43:38.191Z,26.30
2022-11-13T08:46:06.551Z,27.17
2022-11-13T08:48:36.678Z,31.27
2022-11-13T08:51:05.399Z,20.17
2022-11-13T08:53:33.570Z,27.90
2022-11-13T08:56:03.182Z,32.30
2022-11-13T08:58:31.794Z,36.42
2022-11-13T09:01:03.895Z,34.00
2022-11-13T09:03:32.151Z,22.05
2022-11-13T09:06:01.726Z,31.60
2022-11-13T09:08:32.150Z,30.88
2022-11-13T09:11:04.361Z,37.17
2022-11-13T09:13:32.654Z,33.63
2022-11-13T09:16:01.268Z,27.70
2022-11-13T09:18:30.477Z,32.80
2022-11-13T09:21:04.242Z,31.20
2022-11-13T09:23:32.814Z,28.13
2022-11-13T09:26:03.794Z,38.85
2022-11-13T09:28:32.303Z,29.08
2022-11-13T09:31:00.548Z,32.45
2022-11-13T09:33:28.781Z,26.02
2022-11-13T09:35:56.939Z,26.40
2022-11-13T09:38:26.687Z,30.13
2022-11-13T09:41:01.145Z,32.05
2022-11-13T09:43:41.333Z,36.95
2022-11-13T09:46:18.585Z,35.58
2022-11-13T09:48:54.212Z,31.35
2022-11-13T09:51:27.295Z,27.77
2022-11-13T09:53:57.476Z,31.40
2022-11-13T09:56:32.554Z,29.88
2022-11-13T09:59:08.494Z,28.58
2022-11-13T10:01:48.691Z,28.45
2022-11-13T10:04:24.833Z,24.23
2022-11-13T10:07:11.829Z,23.05
2022-11-13T10:09:55.697Z,29.35
2022-11-13T10:12:24.037Z,31.27
2022-11-13T10:14:55.049Z,36.40
2022-11-13T10:17:28.326Z,23.15
2022-11-13T10:19:59.142Z,33.30
2022-11-13T10:22:36.210Z,27.10
2022-11-13T10:25:13.875Z,24.80
2022-11-13T10:27:42.482Z,27.75
2022-11-13T10:30:17.011Z,34.30
2022-11-13T10:32:46.308Z,24.85
2022-11-13T10:35:31.810Z,16.48
2022-11-13T10:38:08.282Z,26.88
2022-11-13T10:40:40.101Z,27.83
2022-11-13T10:43:16.144Z,26.08
2022-11-13T10:45:54.491Z,28.20
2022-11-13T10:48:23.725Z,27.27
2022-11-13T10:51:00.862Z,34.13
2022-11-13T10:53:38.653Z,27.27
2022-11-13T10:56:23.812Z,24.73
2022-11-13T10:59:03.136Z,16.80
2022-11-13T11:01:31.667Z,17.55
2022-11-13T11:04:00.024Z,20.35
2022-11-13T11:07:12.572Z,26.38
2022-11-13T11:09:27.342Z,30.55
2022-11-13T11:15:00.911Z,16.90
2022-11-13T11:17:34.500Z,27.10
2022-11-13T11:20:07.347Z,20.20
2022-11-13T11:22:39.254Z,17.80
2022-11-13T11:25:14.087Z,16.20
2022-11-13T11:27:48.771Z,23.75
2022-11-13T11:30:22.093Z,15.40
2022-11-13T11:33:02.042Z,17.45
2022-11-13T11:35:40.322Z,16.08
2022-11-13T11:38:16.510Z,20.33
2022-11-13T11:40:49.238Z,21.13
2022-11-13T11:43:25.198Z,31.95
2022-11-13T11:45:53.979Z,19.58
2022-11-13T11:48:26.521Z,20.58
2022-11-13T11:51:05.370Z,23.83
2022-11-13T11:53:43.518Z,15.75
2022-11-13T11:56:23.684Z,16.38
2022-11-13T11:59:07.116Z,19.63
2022-11-13T12:01:46.489Z,21.70
2022-11-13T12:04:27.936Z,18.92
2022-11-13T12:07:07.553Z,22.10
2022-11-13T12:09:41.656Z,27.67
2022-11-13T12:12:19.190Z,21.60
2022-11-13T12:15:02.700Z,18.92
2022-11-13T12:17:42.994Z,19.20
2022-11-13T12:20:20.689Z,19.08
2022-11-13T12:22:54.656Z,20.45
2022-11-13T12:25:29.363Z,24.15
2022-11-13T12:28:03.308Z,24.63
2022-11-13T12:30:41.647Z,20.13
2022-11-13T12:33:32.004Z,18.60
2022-11-13T12:36:00.903Z,23.48
2022-11-13T12:38:40.745Z,21.40
2022-11-13T12:41:16.825Z,19.48
2022-11-13T12:44:09.293Z,19.42
2022-11-13T12:46:41.450Z,18.27
2022-11-13T12:49:29.518Z,17.40
2022-11-13T12:51:59.625Z,21.67
2022-11-13T12:54:29.575Z,23.15
2022-11-13T12:57:19.876Z,26.63
2022-11-13T12:59:51.093Z,15.32
2022-11-13T13:02:36.682Z,14.70
2022-11-13T13:05:18.475Z,19.58
2022-11-13T13:08:32.046Z,23.13
2022-11-13T13:11:14.507Z,16.45
2022-11-13T13:13:50.467Z,25.33
2022-11-13T13:16:25.048Z,16.90
2022-11-13T13:18:55.117Z,19.80
2022-11-13T13:21:23.295Z,23.95
2022-11-13T13:23:53.413Z,26.35
2022-11-13T13:26:24.155Z,15.60
2022-11-13T13:28:54.152Z,19.85
2022-11-13T13:31:40.193Z,25.95
2022-11-13T13:34:35.609Z,18.75
2022-11-13T13:37:12.135Z,19.67
2022-11-13T13:39:51.280Z,19.35
2022-11-13T13:42:34.191Z,24.17
2022-11-13T13:45:24.967Z,14.90
2022-11-13T13:47:57.523Z,19.70
2022-11-13T13:50:29.394Z,20.02
2022-11-13T13:52:59.984Z,30.52
2022-11-13T13:55:32.801Z,31.37
2022-11-13T13:58:05.672Z,31.63
2022-11-13T14:00:34.695Z,30.00
2022-11-13T14:03:04.216Z,34.72
2022-11-13T14:05:36.034Z,27.02
2022-11-13T14:08:18.070Z,23.45
2022-11-13T14:10:46.902Z,25.17
2022-11-13T14:13:16.219Z,24.77
2022-11-13T14:15:44.713Z,23.52
2022-11-13T14:18:15.054Z,21.38
2022-11-13T14:20:49.714Z,27.33
2022-11-13T14:23:22.377Z,24.25
2022-11-13T14:25:51.078Z,23.98
2022-11-13T14:28:20.895Z,19.20
2022-11-13T14:30:56.093Z,25.42
2022-11-13T14:33:28.216Z,22.40
2022-11-13T14:35:59.526Z,23.05
2022-11-13T14:38:30.404Z,28.58
2022-11-13T14:40:59.403Z,31.45
2022-11-13T14:43:31.235Z,24.48
2022-11-13T14:46:01.393Z,21.98
2022-11-13T14:48:31.291Z,20.05
2022-11-13T14:51:02.590Z,23.08
2022-11-13T14:53:33.400Z,18.25
2022-11-13T14:56:04.781Z,32.45
2022-11-13T14:58:35.234Z,35.50
2022-11-13T15:01:16.388Z,36.00
2022-11-13T15:03:45.009Z,30.75
2022-11-13T15:06:17.096Z,28.67
2022-11-13T15:08:46.113Z,36.67
2022-11-13T15:11:15.735Z,23.63
2022-11-13T15:13:44.119Z,20.83
2022-11-13T15:16:16.574Z,31.05
2022-11-13T15:18:48.119Z,35.20
2022-11-13T15:21:18.648Z,33.95
2022-11-13T15:23:46.789Z,23.87
2022-11-13T15:26:15.149Z,29.88
2022-11-13T15:28:43.444Z,27.63
2022-11-13T15:31:20.171Z,26.58
2022-11-13T15:33:49.091Z,27.38
2022-11-13T15:36:18.751Z,31.58
2022-11-13T15:38:47.005Z,32.40
2022-11-13T15:41:17.473Z,27.30
2022-11-13T15:43:47.958Z,28.92
2022-11-13T15:46:18.190Z,28.50
2022-11-13T15:48:46.771Z,33.55
2022-11-13T15:51:20.608Z,33.15
2022-11-13T15:53:51.491Z,24.05
2022-11-13T15:56:19.987Z,19.98
2022-11-13T15:58:48.146Z,30.73
2022-11-13T16:01:17.453Z,30.30
2022-11-13T16:03:45.923Z,27.90
2022-11-13T16:06:17.012Z,24.38
2022-11-13T16:08:47.032Z,28.33
2022-11-13T16:11:17.076Z,27.30
2022-11-13T16:13:45.547Z,31.55
2022-11-13T16:16:18.257Z,28.90
2022-11-13T16:18:46.613Z,30.55
2022-11-13T16:21:15.312Z,26.02
2022-11-13T16:23:43.737Z,25.67
2022-11-13T16:26:16.131Z,31.00
2022-11-13T16:29:12.302Z,22.38
2022-11-13T16:31:32.842Z,27.10
2022-11-13T16:34:01.068Z,19.88
2022-11-13T16:36:29.248Z,26.25
2022-11-13T16:38:57.338Z,16.88
2022-11-13T16:41:27.035Z,24.08
2022-11-13T16:43:55.292Z,29.08
2022-11-13T16:46:28.132Z,32.30
2022-11-13T16:48:56.767Z,33.20
2022-11-13T16:51:24.989Z,28.08
2022-11-13T16:53:53.158Z,25.38
2022-11-13T16:56:25.039Z,31.15
2022-11-13T16:58:55.858Z,23.98
2022-11-13T17:01:25.081Z,24.25
2022-11-13T17:03:53.607Z,25.02
2022-11-13T17:06:23.661Z,28.52
2022-11-13T17:08:52.211Z,33.03
2022-11-13T17:11:20.744Z,30.05
2022-11-13T17:13:51.005Z,30.73
2022-11-13T17:16:22.709Z,32.10
2022-11-13T17:18:53.048Z,29.00
2022-11-13T17:21:21.839Z,44.17
2022-11-13T17:23:55.263Z,34.25
2022-11-13T17:26:23.847Z,29.95
2022-11-13T17:28:52.969Z,30.45
2022-11-13T17:31:23.069Z,29.95
2022-11-13T17:33:53.968Z,31.10
2022-11-13T17:36:22.430Z,40.47
2022-11-13T17:38:50.890Z,32.40
2022-11-13T17:41:19.383Z,36.47
2022-11-13T17:43:47.534Z,27.15
2022-11-13T17:46:17.419Z,30.73
2022-11-13T17:48:48.190Z,37.03
2022-11-13T17:51:17.244Z,38.90
2022-11-13T17:53:45.483Z,24.63
2022-11-13T17:56:14.293Z,33.30
2022-11-13T17:58:43.715Z,34.28
2022-11-13T18:01:13.351Z,51.13
2022-11-13T18:03:41.578Z,39.60
2022-11-13T18:06:13.702Z,34.70
2022-11-13T18:08:44.945Z,38.47
2022-11-13T18:11:16.706Z,41.88
2022-11-13T18:13:45.717Z,40.17
2022-11-13T18:16:15.543Z,35.53
2022-11-13T18:18:43.792Z,38.13
2022-11-13T18:21:22.807Z,27.35
2022-11-13T18:23:57.831Z,35.00
2022-11-13T18:26:26.409Z,38.05
2022-11-13T18:28:54.909Z,23.48
2022-11-13T18:31:23.754Z,33.13
2022-11-13T18:33:52.070Z,27.13
2022-11-13T18:36:21.633Z,37.72
2022-11-13T18:38:50.089Z,35.08
2022-11-13T18:41:20.372Z,27.77
2022-11-13T18:43:50.598Z,52.00
2022-11-13T18:46:20.602Z,29.42
2022-11-13T18:48:50.331Z,31.13
2022-11-13T18:51:22.286Z,31.83
2022-11-13T18:53:52.249Z,33.55
2022-11-13T18:56:22.423Z,26.90
2022-11-13T18:58:52.306Z,31.65
2022-11-13T19:01:23.238Z,19.90
2022-11-13T19:04:21.195Z,34.60
2022-11-13T19:06:42.067Z,31.05
2022-11-13T19:09:13.192Z,33.33
2022-11-13T19:11:42.028Z,26.75
2022-11-13T19:14:11.219Z,23.40
2022-11-13T19:16:40.728Z,35.80
2022-11-13T19:19:15.147Z,25.98
2022-11-13T19:21:45.204Z,35.47
2022-11-13T19:24:15.107Z,27.98
2022-11-13T19:26:43.724Z,30.02
2022-11-13T19:29:12.294Z,33.33
2022-11-13T19:31:40.516Z,37.03
2022-11-13T19:34:09.381Z,26.60
2022-11-13T19:36:38.147Z,28.90
2022-11-13T19:39:07.723Z,29.20
2022-11-13T19:41:35.966Z,22.80
2022-11-13T19:44:04.066Z,41.92
2022-11-13T19:46:34.080Z,35.85
2022-11-13T19:49:02.338Z,56.38
2022-11-13T19:51:30.491Z,31.95
2022-11-13T19:54:00.264Z,43.53
2022-11-13T19:56:30.546Z,31.08
2022-11-13T19:58:58.666Z,38.30
2022-11-13T20:01:29.050Z,21.08
2022-11-13T20:03:59.007Z,26.08
2022-11-13T20:06:28.451Z,25.02
2022-11-13T20:08:56.977Z,32.45
2022-11-13T20:11:25.190Z,30.85
2022-11-13T20:13:56.327Z,24.83
2022-11-13T20:16:25.257Z,23.50
2022-11-13T20:18:57.303Z,29.80
2022-11-13T20:21:26.394Z,22.55
2022-11-13T20:23:57.007Z,32.15
2022-11-13T20:26:25.894Z,26.23
2022-11-13T20:28:55.498Z,29.65
2022-11-13T20:31:27.899Z,30.02
2022-11-13T20:33:57.621Z,28.45
2022-11-13T20:36:26.387Z,26.80
2022-11-13T20:38:56.363Z,34.33
2022-11-13T20:41:25.235Z,28.15
2022-11-13T20:43:59.557Z,31.50
2022-11-13T20:46:27.696Z,34.92
2022-11-13T20:48:55.841Z,30.63
2022-11-13T20:51:26.124Z,29.23
2022-11-13T20:53:55.480Z,23.80
2022-11-13T20:56:25.187Z,31.17
2022-11-13T20:58:53.525Z,24.95
2022-11-13T21:01:24.938Z,27.05
2022-11-13T21:06:24.934Z,32.17
2022-11-13T21:11:23.108Z,32.13
2022-11-13T21:13:51.349Z,26.15
2022-11-13T21:16:19.959Z,27.77
2022-11-13T21:18:50.023Z,29.88
2022-11-13T21:21:20.471Z,29.63
2022-11-13T21:23:49.361Z,27.48
2022-11-13T21:26:18.002Z,38.20
2022-11-13T21:28:46.224Z,24.08
2022-11-13T21:31:17.053Z,21.77
2022-11-13T21:33:46.564Z,30.67
2022-11-13T21:36:17.790Z,19.27
2022-11-13T21:38:46.097Z,31.63
2022-11-13T21:41:25.103Z,27.10
2022-11-13T21:43:57.172Z,28.20
2022-11-13T21:46:27.811Z,23.73
2022-11-13T21:48:58.221Z,24.33
2022-11-13T21:51:28.290Z,19.50
2022-11-13T21:53:56.703Z,28.52
2022-11-13T21:56:25.458Z,38.10
2022-11-13T21:58:53.802Z,30.60
2022-11-13T22:01:23.813Z,33.17
2022-11-13T22:03:52.896Z,26.98
2022-11-13T22:06:23.309Z,30.17
2022-11-13T22:08:58.871Z,23.17
2022-11-13T22:11:28.979Z,24.25
2022-11-13T22:13:57.919Z,22.10
2022-11-13T22:16:27.832Z,28.60
2022-11-13T22:18:56.868Z,21.95
2022-11-13T22:21:26.814Z,13.30
2022-11-13T22:23:56.798Z,32.22
2022-11-13T22:26:26.601Z,30.23
2022-11-13T22:28:55.783Z,17.17
2022-11-13T22:31:30.522Z,24.00
2022-11-13T22:33:59.242Z,20.50
2022-11-13T22:36:28.936Z,15.43
2022-11-13T22:38:59.178Z,19.23
2022-11-13T22:41:29.450Z,30.55
2022-11-13T22:44:00.678Z,26.70
2022-11-13T22:46:30.673Z,17.30
2022-11-13T22:49:01.807Z,14.55
2022-11-13T22:51:31.211Z,15.82
2022-11-13T22:54:02.446Z,14.48
2022-11-13T22:56:32.648Z,19.27
2022-11-13T22:59:02.100Z,7.07
2022-11-13T23:01:31.737Z,4.32
2022-11-13T23:04:02.268Z,2.80
2022-11-13T23:06:32.721Z,3.93
2022-11-13T23:09:02.589Z,2.58
2022-11-13T23:11:32.961Z,1.48
2022-11-13T23:14:03.798Z,1.42
2022-11-13T23:16:32.925Z,1.40
2022-11-13T23:19:02.422Z,2.83
2022-11-13T23:21:31.203Z,2.05
2022-11-13T23:24:00.103Z,1.85
2022-11-13T23:26:30.031Z,1.85
2022-11-13T23:28:58.524Z,1.75
2022-11-13T23:31:26.739Z,1.38
2022-11-13T23:33:54.876Z,1.95
2022-11-13T23:36:23.545Z,1.50
2022-11-13T23:38:51.644Z,2.95
2022-11-13T23:41:19.786Z,2.58
2022-11-13T23:46:37.457Z,1.33
2022-11-13T23:49:05.572Z,2.08
2022-11-13T23:51:33.795Z,1.85
2022-11-13T23:54:01.999Z,1.58
2022-11-13T23:56:30.300Z,2.25
2022-11-13T23:58:59.934Z,3.08
